Latest Coastal Weather Observations for Moruya Airport

IDN60701

Issued at 3:41 am EST Thursday 23 May 2024 (issued every 10 minutes, with the page automatically refreshed every 10 minutes)

About coastal observations | Map of coastal stations | Coastal observations for NSW | Marine services | Other Formats
Station Details ID: 069148 Name: MORUYA AIRPORT AWS Lat: -35.90 Lon: 150.14 Height: 4.0 m
Data from the previous 72 hours. | See also: Recent months at Moruya Airport
Date/Time
EST
Wind Sea
Height
m
Swell Vis
km
Cloud Weather Temp
°C
Press
MSL
hPa
Rain since
9am
mm
Dir  Spd
kts
Gust
kts
Height
m
Period
s
Dir
23/03:30am WSW 2 3 - - - - 10 Clear - 6.8 1025.8 0.0
23/03:00am WSW 5 6 - - - - 10 - - 6.6 1025.9 0.0
23/02:30am WSW 4 5 - - - - 10 - - 6.8 1025.8 0.0
23/02:00am CALM 0 5 - - - - 10 - - 6.9 1025.9 0.0
23/01:30am W 1 3 - - - - 10 - - 7.3 1026.2 0.0
23/01:00am W 3 4 - - - - 10 - - 7.5 1026.3 0.0
23/12:30am W 1 4 - - - - 10 - - 7.5 1026.3 0.0
23/12:00am W 4 6 - - - - 10 - - 8.1 1026.5 0.0
 
Date/Time
EST
Wind Sea
Height
m
Swell Vis
km
Cloud Weather Temp
°C
Press
MSL
hPa
Rain since
9am
mm
Dir  Spd
kts
Gust
kts
Height
m
Period
s
Dir
22/11:30pm W 4 5 - - - - 10 - - 8.0 1026.5 0.0
22/11:00pm W 3 3 - - - - 10 - - 8.3 1026.5 0.0
22/10:30pm SSW 4 5 - - - - 10 - - 8.2 1026.6 0.0
22/10:00pm S 3 5 - - - - 10 - - 8.8 1026.5 0.0
22/09:30pm S 4 5 - - - - 10 - - 8.9 1026.7 0.0
22/09:00pm S 3 6 - - - - 10 - - 9.9 1026.6 0.0
22/08:30pm S 5 7 - - - - 10 - - 10.2 1026.5 0.0
22/08:00pm S 4 5 - - - - 10 - - 9.8 1026.5 0.0
22/07:30pm S 4 7 - - - - 10 - - 9.6 1026.4 0.0
22/07:00pm S 4 4 - - - - 10 - - 9.3 1026.2 0.0
22/06:30pm S 3 4 - - - - 10 - - 10.0 1026.2 0.0
22/06:00pm S 2 3 - - - - 10 - - 10.7 1025.8 0.0
22/05:30pm S 3 3 - - - - 10 - - 11.3 1025.5 0.0
22/05:00pm S 4 5 - - - - 10 - - 13.4 1025.2 0.0
22/04:30pm S 5 7 - - - - 10 - - 15.4 1025.1 0.0
22/04:00pm SSE 7 11 - - - - 10 - - 16.4 1024.9 0.0
22/03:30pm SE 6 8 - - - - 10 - - 16.9 1024.9 0.0
22/03:00pm SSE 6 9 - - - - 10 - - 16.9 1024.9 0.0
22/02:30pm SE 8 10 - - - - 10 Partly cloudy - 17.2 1024.8 0.0
22/02:00pm SE 8 10 - - - - 10 - - 17.2 1024.9 0.0
22/01:30pm SSE 8 11 - - - - 10 Partly cloudy - 18.0 1025.0 0.0
22/01:00pm SSW 8 11 - - - - 10 - - 17.7 1025.4 0.0
22/12:30pm SSW 6 9 - - - - 10 - - 17.8 1025.8 0.0
22/12:00pm SSW 8 12 - - - - 10 - - 17.3 1026.4 0.0
22/11:30am S 9 14 - - - - 10 - - 17.2 1026.8 0.0
22/11:00am WSW 5 8 - - - - 10 - - 16.4 1027.2 0.0
22/10:30am WNW 5 7 - - - - 10 - - 15.5 1027.3 0.0
22/10:00am WNW 6 8 - - - - 10 - - 14.7 1027.4 0.0
22/09:30am W 5 8 - - - - 10 - - 13.4 1027.6 0.0
22/09:00am W 5 7 - - - - 10 - - 11.8 1027.6 0.0
22/08:30am W 5 7 - - - - 10 - - 10.6 1027.5 0.0
22/08:00am W 5 8 - - - - 10 - - 9.1 1027.6 0.0
22/07:30am W 5 7 - - - - 10 - - 7.4 1027.4 0.0
22/07:00am W 4 5 - - - - 10 - - 6.0 1027.3 0.0
22/06:30am WSW 5 6 - - - - 10 - - 6.1 1027.2 0.0
22/06:00am WSW 4 6 - - - - 10 - - 6.2 1027.2 0.0
22/05:30am WSW 3 5 - - - - 10 - - 6.6 1027.2 0.0
22/05:00am WSW 4 6 - - - - 10 - - 7.3 1027.1 0.0
22/04:30am WSW 5 7 - - - - 10 - - 7.6 1026.9 0.0
22/04:00am W 5 7 - - - - 10 - - 8.6 1026.9 0.0
22/03:30am W 5 7 - - - - 10 - - 8.4 1026.9 0.0
22/03:00am W 5 7 - - - - 10 - - 8.9 1027.0 0.0
22/02:30am W 5 7 - - - - 10 - - 8.8 1027.2 0.0
22/02:00am W 5 6 - - - - 10 - - 8.8 1027.2 0.0
22/01:30am W 2 3 - - - - 10 Partly cloudy - 8.9 1027.2 0.0
22/01:00am W 3 4 - - - - 10 Cloudy - 9.8 1027.3 0.0
22/12:30am CALM 0 1 - - - - 10 Cloudy - 10.1 1027.3 0.0
22/12:00am WSW 4 6 - - - - 10 Cloudy - 10.4 1027.3 0.0
 
Date/Time
EST
Wind Sea
Height
m
Swell Vis
km
Cloud Weather Temp
°C
Press
MSL
hPa
Rain since
9am
mm
Dir  Spd
kts
Gust
kts
Height
m
Period
s
Dir
21/11:30pm W 4 5 - - - - 10 Cloudy - 10.6 1027.5 0.0
21/11:00pm WSW 4 5 - - - - 10 Cloudy - 10.7 1027.7 0.0
21/10:30pm WSW 3 5 - - - - 10 Partly cloudy - 10.3 1027.9 0.0
21/10:00pm WSW 5 8 - - - - 10 Partly cloudy - 11.3 1027.9 0.0
21/09:30pm SW 5 7 - - - - 10 Cloudy - 11.5 1028.0 0.0
21/09:00pm SSW 3 4 - - - - 10 Mostly cloudy - 11.6 1028.0 0.0
21/08:30pm SSW 3 4 - - - - 10 Cloudy - 11.2 1028.1 0.0
21/08:00pm SSW 1 3 - - - - 10 Cloudy - 11.3 1028.1 0.0
21/07:30pm S 3 5 - - - - 10 Cloudy - 11.2 1028.1 0.0
21/07:00pm S 4 5 - - - - 10 Partly cloudy - 11.3 1028.0 0.0
21/06:30pm S 3 5 - - - - 10 Cloudy - 11.7 1027.9 0.0
21/06:00pm S 3 4 - - - - 10 Partly cloudy - 11.1 1027.5 0.0
21/05:30pm CALM 0 0 - - - - 10 Partly cloudy - 12.4 1027.1 0.0
21/05:00pm CALM 0 4 - - - - 10 Partly cloudy - 13.8 1026.8 0.0
21/04:30pm CALM 0 0 - - - - 10 Cloudy - 16.2 1026.8 0.0
21/04:00pm CALM 0 0 - - - - 10 Partly cloudy - 17.4 1026.8 0.0
21/03:30pm SSE 1 3 - - - - 10 Partly cloudy - 17.0 1026.7 0.0
21/03:00pm S 4 5 - - - - 10 Mostly cloudy - 17.7 1026.5 0.0
21/02:30pm S 3 6 - - - - 10 Partly cloudy - 18.6 1026.5 0.0
21/02:00pm S 6 7 - - - - 10 Partly cloudy - 17.9 1026.6 0.0
21/01:30pm S 6 8 - - - - 10 Partly cloudy - 17.5 1026.8 0.0
21/01:00pm SW 6 8 - - - - 10 Partly cloudy - 17.9 1027.0 0.0
21/12:30pm SSW 8 12 - - - - 10 Cloudy - 18.1 1027.3 0.0
21/12:00pm SSW 8 13 - - - - 10 Mostly cloudy - 18.2 1027.6 0.0
21/11:30am SW 6 11 - - - - 10 Partly cloudy - 17.7 1027.9 0.0
21/11:00am SW 8 11 - - - - 10 Partly cloudy - 17.0 1028.4 0.0
21/10:30am SSW 8 12 - - - - 10 Cloudy - 16.8 1028.7 0.0
21/10:00am WSW 5 7 - - - - 10 Partly cloudy - 15.5 1028.7 0.0
21/09:30am WSW 5 7 - - - - 10 Partly cloudy - 14.9 1028.8 0.0
21/09:00am W 4 6 - - - - 10 Cloudy - 14.3 1028.9 0.0
21/08:30am WSW 3 4 - - - - 10 Partly cloudy - 12.5 1028.9 0.0
21/08:00am WSW 4 5 - - - - 10 Partly cloudy - 11.9 1028.7 0.0
21/07:30am W 3 4 - - - - 10 Partly cloudy - 11.0 1028.4 0.0
21/07:00am W 3 5 - - - - 10 Partly cloudy - 10.6 1028.0 0.0
21/06:30am WSW 4 6 - - - - 10 Partly cloudy - 10.2 1027.7 0.0
21/06:00am WSW 5 5 - - - - 10 Mostly cloudy - 10.1 1027.6 0.0
21/05:30am W 4 6 - - - - 10 Cloudy - 10.8 1027.3 0.0
21/05:00am W 5 6 - - - - 10 Cloudy - 11.0 1027.0 0.0
21/04:30am W 4 6 - - - - 10 Cloudy - 11.3 1026.8 0.0
21/04:00am W 4 7 - - - - 10 Cloudy - 10.8 1026.7 0.0
21/03:30am W 3 5 - - - - 10 Cloudy - 11.0 1026.8 0.0
21/03:00am WSW 4 6 - - - - 10 Cloudy - 11.4 1027.1 0.0
21/02:30am WSW 3 5 - - - - 10 Cloudy - 11.3 1027.1 0.0
21/02:00am WSW 4 5 - - - - 10 Cloudy - 11.0 1027.0 0.0
21/01:30am W 4 5 - - - - 10 Cloudy - 10.9 1027.0 0.0
21/01:00am W 3 4 - - - - 10 Cloudy - 10.9 1027.0 0.0
21/12:30am SW 6 6 - - - - 10 Cloudy - 11.2 1027.2 0.0
21/12:00am WSW 4 6 - - - - 10 Mostly cloudy - 11.1 1027.2 0.0
 
Date/Time
EST
Wind Sea
Height
m
Swell Vis
km
Cloud Weather Temp
°C
Press
MSL
hPa
Rain since
9am
mm
Dir  Spd
kts
Gust
kts
Height
m
Period
s
Dir
20/11:30pm SW 3 4 - - - - 10 Cloudy - 11.4 1027.6 0.0
20/11:00pm SW 4 5 - - - - 10 Cloudy - 12.0 1027.5 0.0
20/10:30pm WSW 4 5 - - - - 10 Cloudy - 12.2 1027.3 0.0
20/10:00pm WSW 5 6 - - - - 10 Cloudy - 12.7 1027.3 0.0
20/09:30pm SW 5 7 - - - - 10 Cloudy - 12.7 1027.3 0.0
20/09:00pm SW 6 8 - - - - 10 Cloudy - 13.0 1027.1 0.0
20/08:30pm WSW 6 8 - - - - 10 Cloudy - 12.7 1026.9 0.0
20/08:00pm SW 5 6 - - - - 10 Cloudy - 12.3 1026.5 0.0
20/07:30pm WSW 4 6 - - - - 10 Cloudy - 12.1 1026.3 0.0
20/07:00pm WSW 5 6 - - - - 10 Cloudy - 12.7 1025.9 0.0
20/06:30pm WSW 5 7 - - - - 10 Cloudy - 12.3 1025.7 0.0
20/06:00pm WSW 3 4 - - - - 10 Mostly cloudy - 11.7 1025.5 0.0
20/05:30pm SW 4 7 - - - - 10 - - 12.8 1025.1 0.0
20/05:00pm SSW 4 6 - - - - 10 - - 13.9 1024.9 0.0
20/04:30pm SSW 5 7 - - - - 10 - - 15.7 1024.7 0.0
20/04:00pm SSW 8 11 - - - - 10 - - 16.9 1024.4 0.0
20/03:30pm S 12 15 - - - - 10 - - 17.4 1024.1 0.0
20/03:00pm S 9 12 - - - - 10 - - 17.9 1023.9 0.0
20/02:30pm S 9 13 - - - - 10 Partly cloudy - 17.4 1023.6 0.0
20/02:00pm S 11 16 - - - - 10 Partly cloudy - 18.7 1023.5 0.0
20/01:30pm S 11 18 - - - - 10 Partly cloudy - 18.5 1023.5 0.0
20/01:00pm S 8 12 - - - - 10 Partly cloudy - 17.8 1023.6 0.0
20/12:30pm S 12 15 - - - - 10 Partly cloudy - 18.1 1023.7 0.0
20/12:00pm S 11 18 - - - - 10 - - 18.1 1023.8 0.0
20/11:30am SW 11 15 - - - - 10 - - 17.5 1023.9 0.0
20/11:00am SW 12 17 - - - - 10 - - 17.6 1024.2 0.0
20/10:30am SW 12 17 - - - - 10 - - 16.7 1024.2 0.0
20/10:00am WSW 9 11 - - - - 10 - - 15.7 1024.1 0.0
20/09:30am WSW 8 11 - - - - 10 - - 14.2 1024.1 0.0
20/09:00am WSW 5 7 - - - - 10 - - 12.5 1024.0 0.0
20/08:30am WSW 6 8 - - - - 10 - - 10.5 1023.9 0.0
20/08:00am WSW 5 7 - - - - 10 - - 8.7 1023.7 0.0
20/07:30am WSW 5 7 - - - - 10 - - 7.2 1023.3 0.0
20/07:00am WSW 5 6 - - - - 10 - - 5.3 1022.8 0.0
20/06:30am WSW 4 5 - - - - 10 - - 5.6 1022.5 0.0
20/06:00am WSW 4 5 - - - - 10 - - 5.6 1022.1 0.0
20/05:30am WSW 4 6 - - - - 10 Partly cloudy - 5.5 1021.8 0.0
20/05:00am WSW 5 5 - - - - 10 - - 5.6 1021.6 0.0
20/04:30am WSW 4 5 - - - - 10 - - 5.9 1021.3 0.0
20/04:00am WSW 2 4 - - - - 10 Partly cloudy - 6.3 1021.2 0.0

Other formats

Comma delimited format used in spreadsheet applications
http://www.bom.gov.au/fwo/IDN60701/IDN60701.95937.axf

JavaScript Object Notation format (JSON) in row-major order
http://www.bom.gov.au/fwo/IDN60701/IDN60701.95937.json

Data quality

Most of these data are generated automatically and are frequently updated. Quality checks on data are not normally performed. It is possible for incorrect values to appear. Refer to information at About Latest Weather Observations and please check the disclaimer before using these data.